Time;durP1;ratioP1;P1;durP2;ratioP2;P2;SDS_P1;SDS_P2;PMS_P1;PMS_P2;Temp;Humidity;BMP_temperature;BMP_pressure;BME280_temperature;BME280_humidity;BME280_pressure;Samples;Min_cycle;Max_cycle;Signal;HPM_P1;HPM_P2
2021/08/12 00:02:10;;;;;;;9.90;8.67;;;;;;;;;;5013478;28;20399;-46
2021/08/12 00:04:36;;;;;;;8.50;7.27;;;;;;;;;;5013174;28;20377;-46
2021/08/12 00:07:02;;;;;;;9.70;8.10;;;;;;;;;;5013010;28;20402;-45
2021/08/12 00:09:28;;;;;;;9.37;8.20;;;;;;;;;;5012933;28;20411;-45
2021/08/12 00:11:54;;;;;;;12.30;8.00;;;;;;;;;;5013092;28;20418;-46
2021/08/12 00:14:20;;;;;;;14.90;7.90;;;;;;;;;;5012968;28;20384;-46
2021/08/12 00:16:46;;;;;;;11.83;8.83;;;;;;;;;;5013004;28;20392;-45
2021/08/12 00:19:12;;;;;;;9.00;8.03;;;;;;;;;;5012612;28;20471;-46
2021/08/12 00:21:39;;;;;;;9.10;8.20;;;;;;;;;;5012331;28;20434;-46
2021/08/12 00:24:05;;;;;;;9.50;8.60;;;;;;;;;;5012609;28;20407;-46
2021/08/12 00:26:31;;;;;;;13.03;10.10;;;;;;;;;;5012816;28;20446;-46
2021/08/12 00:28:57;;;;;;;10.53;9.57;;;;;;;;;;5012763;28;20441;-45
2021/08/12 00:31:23;;;;;;;12.50;8.90;;;;;;;;;;5012301;28;20429;-46
2021/08/12 00:33:49;;;;;;;10.57;9.50;;;;;;;;;;5012576;28;20395;-46
2021/08/12 00:36:15;;;;;;;11.23;9.90;;;;;;;;;;5012424;28;20399;-46
2021/08/12 00:38:41;;;;;;;12.23;9.80;;;;;;;;;;5012247;28;20988;-46
2021/08/12 00:41:06;;;;;;;20.53;8.17;;;;;;;;;;5012273;28;20402;-46
2021/08/12 00:43:32;;;;;;;9.93;8.80;;;;;;;;;;5012660;28;21033;-46
2021/08/12 00:45:58;;;;;;;12.90;9.90;;;;;;;;;;5012274;28;20372;-46
2021/08/12 00:48:24;;;;;;;61.07;13.00;;;;;;;;;;5012221;28;20405;-46
2021/08/12 00:50:50;;;;;;;167.07;39.40;;;;;;;;;;5012050;28;20438;-46
2021/08/12 00:53:16;;;;;;;170.03;41.60;;;;;;;;;;5012139;28;20404;-45
2021/08/12 00:55:43;;;;;;;11.00;9.30;;;;;;;;;;5012062;28;20509;-45
2021/08/12 00:58:09;;;;;;;9.63;8.63;;;;;;;;;;5012133;28;20499;-46
2021/08/12 01:00:36;;;;;;;12.13;9.77;;;;;;;;;;5012229;28;20839;-45
2021/08/12 01:03:03;;;;;;;10.87;9.77;;;;;;;;;;5011682;28;20379;-45
2021/08/12 01:05:30;;;;;;;10.37;9.30;;;;;;;;;;5011464;28;20406;-45
2021/08/12 01:07:59;;;;;;;14.00;10.10;;;;;;;;;;5011626;28;20445;-46
2021/08/12 01:10:36;;;;;;;10.63;9.37;;;;;;;;;;5011790;28;20383;-46
2021/08/12 01:13:08;;;;;;;11.80;9.40;;;;;;;;;;5011874;28;20598;-45
2021/08/12 01:15:36;;;;;;;14.80;9.23;;;;;;;;;;5011900;28;20405;-45
2021/08/12 01:18:11;;;;;;;11.40;9.10;;;;;;;;;;5011469;28;20462;-45
2021/08/12 01:20:46;;;;;;;27.77;9.40;;;;;;;;;;5011627;28;20882;-45
2021/08/12 01:23:13;;;;;;;26.53;10.30;;;;;;;;;;5011760;28;20404;-45
2021/08/12 01:25:40;;;;;;;16.63;9.23;;;;;;;;;;5011676;28;20410;-46
2021/08/12 01:28:12;;;;;;;10.80;9.20;;;;;;;;;;5011613;28;20508;-45
2021/08/12 01:30:50;;;;;;;25.73;23.63;;;;;;;;;;5011591;28;20491;-46
2021/08/12 01:33:25;;;;;;;120.13;23.83;;;;;;;;;;5011144;28;20408;-46
2021/08/12 01:35:51;;;;;;;342.60;68.37;;;;;;;;;;5012051;28;20397;-45
2021/08/12 01:38:19;;;;;;;14.77;9.70;;;;;;;;;;5011495;28;20502;-45
2021/08/12 01:40:45;;;;;;;13.50;10.20;;;;;;;;;;5011525;28;20487;-46
2021/08/12 01:43:16;;;;;;;32.37;11.90;;;;;;;;;;5011309;28;20847;-45
2021/08/12 01:45:45;;;;;;;13.70;10.10;;;;;;;;;;5011415;28;20416;-46
2021/08/12 01:48:11;;;;;;;17.17;10.03;;;;;;;;;;5011029;28;20524;-46
2021/08/12 01:50:38;;;;;;;11.37;9.13;;;;;;;;;;5011128;28;20851;-45
2021/08/12 01:53:04;;;;;;;13.20;9.97;;;;;;;;;;5011195;28;20387;-45
2021/08/12 01:55:32;;;;;;;12.30;9.77;;;;;;;;;;5011296;28;20379;-46
2021/08/12 01:57:59;;;;;;;18.53;10.77;;;;;;;;;;5010828;28;20917;-45
2021/08/12 02:00:29;;;;;;;22.13;16.50;;;;;;;;;;5011085;28;20786;-46
2021/08/12 02:02:56;;;;;;;11.90;9.93;;;;;;;;;;5011243;28;20366;-46
2021/08/12 02:05:22;;;;;;;13.87;12.00;;;;;;;;;;5011450;28;20430;-45
2021/08/12 02:07:48;;;;;;;15.30;10.93;;;;;;;;;;5010919;28;20430;-46
2021/08/12 02:10:15;;;;;;;16.97;10.53;;;;;;;;;;5010722;28;20412;-46
2021/08/12 02:12:41;;;;;;;13.67;9.70;;;;;;;;;;5011051;28;20384;-45
2021/08/12 02:15:08;;;;;;;11.10;10.00;;;;;;;;;;5010854;28;20484;-46
2021/08/12 02:17:34;;;;;;;10.23;9.20;;;;;;;;;;5010748;28;20483;-45
2021/08/12 02:20:01;;;;;;;13.70;9.47;;;;;;;;;;5010617;28;20413;-46
2021/08/12 02:22:29;;;;;;;39.47;27.50;;;;;;;;;;5010924;28;20405;-46
2021/08/12 02:24:55;;;;;;;13.17;11.83;;;;;;;;;;5010710;28;20744;-45
2021/08/12 02:27:23;;;;;;;13.23;10.37;;;;;;;;;;5010969;28;20398;-45
2021/08/12 02:29:50;;;;;;;14.10;11.80;;;;;;;;;;5010576;28;20729;-45
2021/08/12 02:32:17;;;;;;;14.53;11.20;;;;;;;;;;5010736;28;20450;-46
2021/08/12 02:34:43;;;;;;;12.43;10.60;;;;;;;;;;5010695;28;20378;-45
2021/08/12 02:37:12;;;;;;;14.20;10.80;;;;;;;;;;5010566;28;20485;-46
2021/08/12 02:39:39;;;;;;;16.20;11.33;;;;;;;;;;5010979;28;20415;-46
2021/08/12 02:42:05;;;;;;;15.43;11.70;;;;;;;;;;5010646;28;20404;-46
2021/08/12 02:44:32;;;;;;;13.23;11.20;;;;;;;;;;5014032;28;20456;-46
2021/08/12 02:46:59;;;;;;;15.73;11.47;;;;;;;;;;5014600;28;20380;-46
2021/08/12 02:49:28;;;;;;;15.47;11.47;;;;;;;;;;5014612;28;20491;-46
2021/08/12 02:51:54;;;;;;;13.10;11.70;;;;;;;;;;5014178;28;20371;-47
2021/08/12 02:54:20;;;;;;;13.97;12.60;;;;;;;;;;5014470;28;20371;-45
2021/08/12 02:56:46;;;;;;;12.30;10.90;;;;;;;;;;5014320;28;20791;-46
2021/08/12 02:59:13;;;;;;;14.53;10.97;;;;;;;;;;5014200;28;21046;-46
2021/08/12 03:01:40;;;;;;;13.00;11.43;;;;;;;;;;5014465;28;20428;-46
2021/08/12 03:04:07;;;;;;;14.23;11.60;;;;;;;;;;5014407;28;20387;-46
2021/08/12 03:06:34;;;;;;;12.87;10.63;;;;;;;;;;5014045;28;20431;-45
2021/08/12 03:09:00;;;;;;;16.03;12.33;;;;;;;;;;5014380;28;20876;-46
2021/08/12 03:11:26;;;;;;;12.10;10.90;;;;;;;;;;5013916;28;20382;-46
2021/08/12 03:13:53;;;;;;;12.83;11.17;;;;;;;;;;5014295;28;20437;-46
2021/08/12 03:16:20;;;;;;;15.83;11.63;;;;;;;;;;5014110;28;20387;-45
2021/08/12 03:18:46;;;;;;;13.63;11.27;;;;;;;;;;5013941;28;20441;-45
2021/08/12 03:21:12;;;;;;;12.10;10.80;;;;;;;;;;5013723;28;20745;-46
2021/08/12 03:23:39;;;;;;;13.30;10.43;;;;;;;;;;5014011;28;20408;-45
2021/08/12 03:26:05;;;;;;;13.83;10.70;;;;;;;;;;5013729;28;20374;-46
2021/08/12 03:28:32;;;;;;;12.40;11.20;;;;;;;;;;5013768;28;20402;-46
2021/08/12 03:30:59;;;;;;;12.53;11.23;;;;;;;;;;5013879;28;20378;-46
2021/08/12 03:33:25;;;;;;;12.63;11.30;;;;;;;;;;5014011;28;20928;-46
2021/08/12 03:35:51;;;;;;;13.90;11.17;;;;;;;;;;5013965;28;20391;-46
2021/08/12 03:38:18;;;;;;;15.40;12.70;;;;;;;;;;5013555;28;20473;-46
2021/08/12 03:40:44;;;;;;;15.50;11.30;;;;;;;;;;5013589;28;20785;-46
2021/08/12 03:43:10;;;;;;;15.97;10.80;;;;;;;;;;5013912;28;20474;-46
2021/08/12 03:45:36;;;;;;;12.43;11.13;;;;;;;;;;5013655;28;20425;-45
2021/08/12 03:48:02;;;;;;;13.67;10.93;;;;;;;;;;5013220;28;20518;-46
2021/08/12 03:50:28;;;;;;;13.47;12.07;;;;;;;;;;5013590;28;20411;-46
2021/08/12 03:52:54;;;;;;;14.50;13.00;;;;;;;;;;5013381;28;20495;-46
2021/08/12 03:55:20;;;;;;;12.27;10.67;;;;;;;;;;5012941;28;20378;-46
2021/08/12 03:57:46;;;;;;;14.43;11.13;;;;;;;;;;5012956;28;20448;-45
2021/08/12 04:00:16;;;;;;;13.50;10.63;;;;;;;;;;5013164;28;20384;-46
2021/08/12 04:02:42;;;;;;;14.80;11.40;;;;;;;;;;5013125;28;20374;-46
2021/08/12 04:05:08;;;;;;;14.00;10.60;;;;;;;;;;5013223;28;20410;-46
2021/08/12 04:07:34;;;;;;;13.40;10.30;;;;;;;;;;5013112;28;20437;-46
2021/08/12 04:10:00;;;;;;;12.27;11.00;;;;;;;;;;5012924;28;20467;-46
2021/08/12 04:12:26;;;;;;;21.47;12.63;;;;;;;;;;5013055;28;20371;-46
2021/08/12 04:14:52;;;;;;;14.07;10.60;;;;;;;;;;5013055;28;20432;-46
2021/08/12 04:17:17;;;;;;;14.30;10.87;;;;;;;;;;5012632;28;20394;-46
2021/08/12 04:19:43;;;;;;;15.00;11.80;;;;;;;;;;5012550;28;20407;-46
2021/08/12 04:22:09;;;;;;;17.17;12.93;;;;;;;;;;5012892;28;20381;-46
2021/08/12 04:24:35;;;;;;;14.20;11.93;;;;;;;;;;5012718;28;20480;-46
2021/08/12 04:27:01;;;;;;;15.03;12.67;;;;;;;;;;5012695;28;20370;-46
2021/08/12 04:29:27;;;;;;;14.57;11.90;;;;;;;;;;5012652;28;20426;-46
2021/08/12 04:31:53;;;;;;;15.30;12.67;;;;;;;;;;5012445;28;20379;-45
2021/08/12 04:34:19;;;;;;;15.27;11.93;;;;;;;;;;5012773;28;20388;-46
2021/08/12 04:36:45;;;;;;;14.23;11.80;;;;;;;;;;5012402;28;20442;-46
2021/08/12 04:39:11;;;;;;;18.60;16.70;;;;;;;;;;5012396;28;20879;-46
2021/08/12 04:41:37;;;;;;;14.20;12.03;;;;;;;;;;5012335;28;20427;-46
2021/08/12 04:44:03;;;;;;;13.73;11.90;;;;;;;;;;5012328;28;20402;-45
2021/08/12 04:46:29;;;;;;;13.27;11.87;;;;;;;;;;5012332;28;20375;-46
2021/08/12 04:48:55;;;;;;;16.40;13.10;;;;;;;;;;5012343;28;20430;-46
2021/08/12 04:51:21;;;;;;;14.33;12.23;;;;;;;;;;5012086;28;20483;-46
2021/08/12 04:53:47;;;;;;;19.47;12.47;;;;;;;;;;5012324;28;20401;-46
2021/08/12 04:56:13;;;;;;;14.70;11.73;;;;;;;;;;5012097;28;20387;-46
2021/08/12 04:58:39;;;;;;;14.33;11.60;;;;;;;;;;5011957;28;20476;-46
2021/08/12 05:01:05;;;;;;;14.60;12.20;;;;;;;;;;5011800;28;20546;-45
2021/08/12 05:03:31;;;;;;;17.20;12.13;;;;;;;;;;5012431;28;20948;-46
2021/08/12 05:06:03;;;;;;;18.30;12.70;;;;;;;;;;5011554;28;20852;-46
2021/08/12 05:08:28;;;;;;;12.80;11.17;;;;;;;;;;5011713;28;20427;-46
2021/08/12 05:10:54;;;;;;;12.43;10.77;;;;;;;;;;5011825;28;20400;-46
2021/08/12 05:13:20;;;;;;;25.53;12.03;;;;;;;;;;5012167;28;20879;-46
2021/08/12 05:15:46;;;;;;;13.73;12.33;;;;;;;;;;5012055;28;20387;-46
2021/08/12 05:18:12;;;;;;;14.10;12.60;;;;;;;;;;5011899;28;20439;-46
2021/08/12 05:20:38;;;;;;;16.23;12.67;;;;;;;;;;5011528;28;20454;-45
2021/08/12 05:23:05;;;;;;;16.10;12.67;;;;;;;;;;5011846;28;20443;-46
2021/08/12 05:25:31;;;;;;;19.63;13.67;;;;;;;;;;5011815;28;20750;-45
2021/08/12 05:27:57;;;;;;;16.10;13.00;;;;;;;;;;5011937;28;20410;-45
2021/08/12 05:30:23;;;;;;;15.23;13.73;;;;;;;;;;5011330;28;20381;-46
2021/08/12 05:32:49;;;;;;;13.93;11.20;;;;;;;;;;5011638;28;20862;-45
2021/08/12 05:35:15;;;;;;;17.00;12.63;;;;;;;;;;5011755;28;20400;-45
2021/08/12 05:37:41;;;;;;;15.00;12.50;;;;;;;;;;5011186;28;20471;-46
2021/08/12 05:40:08;;;;;;;15.40;12.70;;;;;;;;;;5011420;28;20451;-45
2021/08/12 05:42:34;;;;;;;17.70;12.37;;;;;;;;;;5011325;28;20495;-46
2021/08/12 05:44:59;;;;;;;15.70;12.50;;;;;;;;;;5011319;28;20404;-46
2021/08/12 05:47:25;;;;;;;15.63;11.83;;;;;;;;;;5011148;28;20908;-46
2021/08/12 05:49:51;;;;;;;15.37;12.13;;;;;;;;;;5011354;28;20375;-46
2021/08/12 05:52:17;;;;;;;19.07;12.93;;;;;;;;;;5011234;28;20905;-46
2021/08/12 05:54:43;;;;;;;16.87;13.63;;;;;;;;;;5011261;28;20431;-46
2021/08/12 05:57:09;;;;;;;16.27;13.53;;;;;;;;;;5010955;28;20394;-46
2021/08/12 05:59:35;;;;;;;19.23;12.17;;;;;;;;;;5010979;28;20461;-46
2021/08/12 06:02:01;;;;;;;16.33;12.27;;;;;;;;;;5011186;28;20397;-46
2021/08/12 06:04:27;;;;;;;13.90;11.73;;;;;;;;;;5011213;28;20419;-46
2021/08/12 06:06:53;;;;;;;19.00;11.47;;;;;;;;;;5010951;28;20394;-46
2021/08/12 06:09:19;;;;;;;17.30;13.17;;;;;;;;;;5011531;28;20441;-46
2021/08/12 06:11:45;;;;;;;12.80;11.50;;;;;;;;;;5010858;28;20409;-47
2021/08/12 06:14:11;;;;;;;13.13;11.80;;;;;;;;;;5010807;28;20421;-46
2021/08/12 06:16:37;;;;;;;13.47;11.70;;;;;;;;;;5010838;28;20449;-46
2021/08/12 06:19:03;;;;;;;11.70;10.50;;;;;;;;;;5010352;28;20436;-46
2021/08/12 06:21:29;;;;;;;14.80;11.93;;;;;;;;;;5010752;28;20521;-46
2021/08/12 06:23:55;;;;;;;15.50;11.90;;;;;;;;;;5010815;28;20407;-46
2021/08/12 06:26:21;;;;;;;11.07;10.00;;;;;;;;;;5010789;28;20760;-46
2021/08/12 06:28:49;;;;;;;13.40;11.33;;;;;;;;;;5010674;28;20438;-46
2021/08/12 06:31:15;;;;;;;13.60;11.00;;;;;;;;;;5010660;28;20482;-46
2021/08/12 06:33:41;;;;;;;12.13;10.93;;;;;;;;;;5010742;28;20502;-46
2021/08/12 06:36:07;;;;;;;13.33;10.00;;;;;;;;;;5010757;28;20429;-46
2021/08/12 06:38:33;;;;;;;12.90;9.93;;;;;;;;;;5010521;28;21058;-46
2021/08/12 06:40:59;;;;;;;14.93;11.27;;;;;;;;;;5010403;28;20407;-46
2021/08/12 06:43:25;;;;;;;14.03;11.00;;;;;;;;;;5010956;28;20407;-46
2021/08/12 06:45:51;;;;;;;14.37;10.30;;;;;;;;;;5010833;28;20398;-46
2021/08/12 06:48:17;;;;;;;12.63;9.60;;;;;;;;;;5010920;28;20439;-46
2021/08/12 06:50:43;;;;;;;9.50;8.60;;;;;;;;;;5010371;28;20763;-45
2021/08/12 06:53:09;;;;;;;10.90;9.53;;;;;;;;;;5009903;28;20748;-46
2021/08/12 06:55:35;;;;;;;10.30;9.17;;;;;;;;;;5009855;28;20487;-46
2021/08/12 06:58:02;;;;;;;11.23;9.00;;;;;;;;;;5009729;28;20516;-46
2021/08/12 07:00:28;;;;;;;10.83;9.17;;;;;;;;;;5009848;28;20407;-46
2021/08/12 07:02:54;;;;;;;12.73;8.90;;;;;;;;;;5010917;28;20428;-45
2021/08/12 07:05:20;;;;;;;11.10;8.07;;;;;;;;;;5010036;28;20453;-44
2021/08/12 07:07:46;;;;;;;8.93;8.03;;;;;;;;;;5010322;28;20433;-46
2021/08/12 07:10:12;;;;;;;9.13;8.20;;;;;;;;;;5010100;28;20480;-45
2021/08/12 07:12:38;;;;;;;8.13;7.33;;;;;;;;;;5010468;28;20414;-45
2021/08/12 07:15:05;;;;;;;9.33;7.40;;;;;;;;;;5010488;28;20473;-45
2021/08/12 07:17:32;;;;;;;7.57;6.60;;;;;;;;;;5011853;28;20444;-46
2021/08/12 07:19:58;;;;;;;8.10;6.90;;;;;;;;;;5010562;28;20426;-47
2021/08/12 07:22:24;;;;;;;8.27;7.47;;;;;;;;;;5010680;28;20403;-47
2021/08/12 07:24:50;;;;;;;7.23;6.50;;;;;;;;;;5010506;28;20409;-46
2021/08/12 07:27:16;;;;;;;10.47;7.20;;;;;;;;;;5009559;28;20431;-46
2021/08/12 07:29:42;;;;;;;13.57;7.97;;;;;;;;;;5009221;28;20406;-46
2021/08/12 07:32:09;;;;;;;11.43;7.53;;;;;;;;;;5012161;28;20407;-46
2021/08/12 07:34:36;;;;;;;10.17;7.67;;;;;;;;;;5012909;28;20406;-47
2021/08/12 07:37:02;;;;;;;8.43;7.20;;;;;;;;;;5013076;28;20454;-47
2021/08/12 07:39:28;;;;;;;6.73;6.13;;;;;;;;;;5013591;28;20481;-47
2021/08/12 07:41:54;;;;;;;7.97;7.17;;;;;;;;;;5013530;28;20511;-46
2021/08/12 07:44:20;;;;;;;8.10;6.40;;;;;;;;;;5013734;28;20817;-47
2021/08/12 07:46:46;;;;;;;7.23;6.50;;;;;;;;;;5013558;28;20746;-46
2021/08/12 07:49:12;;;;;;;9.50;8.47;;;;;;;;;;5013544;28;20428;-46
2021/08/12 07:51:38;;;;;;;9.10;7.63;;;;;;;;;;5013352;28;20450;-46
2021/08/12 07:54:04;;;;;;;12.33;8.33;;;;;;;;;;5013397;28;20468;-47
2021/08/12 07:56:30;;;;;;;8.53;7.50;;;;;;;;;;5013363;28;20498;-47
2021/08/12 07:58:56;;;;;;;7.07;6.37;;;;;;;;;;5013241;28;20562;-47
2021/08/12 08:01:22;;;;;;;8.43;5.90;;;;;;;;;;5013197;28;20399;-50
2021/08/12 08:03:48;;;;;;;7.83;5.87;;;;;;;;;;5013281;28;20903;-47
2021/08/12 08:06:14;;;;;;;6.20;5.50;;;;;;;;;;5013250;28;20542;-47
2021/08/12 08:08:40;;;;;;;7.20;6.27;;;;;;;;;;5012978;28;20451;-47
2021/08/12 08:11:06;;;;;;;7.13;6.43;;;;;;;;;;5012995;28;20465;-47
2021/08/12 08:13:33;;;;;;;8.77;5.93;;;;;;;;;;5013032;28;20411;-49
2021/08/12 08:15:59;;;;;;;6.60;6.00;;;;;;;;;;5013176;28;20417;-47
2021/08/12 08:18:25;;;;;;;6.17;5.57;;;;;;;;;;5012890;28;20492;-48
2021/08/12 08:20:51;;;;;;;5.83;5.23;;;;;;;;;;5012805;28;20454;-48
2021/08/12 08:23:17;;;;;;;6.70;6.10;;;;;;;;;;5012798;28;20407;-47
2021/08/12 08:25:43;;;;;;;12.43;6.23;;;;;;;;;;5012920;28;20406;-47
2021/08/12 08:28:09;;;;;;;6.33;5.73;;;;;;;;;;5012637;28;20423;-47
2021/08/12 08:30:36;;;;;;;8.33;5.83;;;;;;;;;;5012646;28;20763;-47
2021/08/12 08:33:02;;;;;;;5.50;5.03;;;;;;;;;;5012741;28;20414;-47
2021/08/12 08:35:29;;;;;;;5.77;5.13;;;;;;;;;;5012757;28;20410;-47
2021/08/12 08:37:56;;;;;;;7.80;6.80;;;;;;;;;;5012147;28;20818;-46
2021/08/12 08:40:23;;;;;;;8.50;5.17;;;;;;;;;;5012351;28;20407;-46
2021/08/12 08:42:49;;;;;;;7.53;6.70;;;;;;;;;;5012480;28;20410;-47
2021/08/12 08:45:17;;;;;;;8.57;6.60;;;;;;;;;;5012574;28;20403;-47
2021/08/12 08:47:44;;;;;;;5.73;5.13;;;;;;;;;;5012246;28;20420;-47
2021/08/12 08:50:10;;;;;;;6.50;5.00;;;;;;;;;;5012515;28;20768;-47
2021/08/12 08:52:37;;;;;;;5.53;4.57;;;;;;;;;;5012380;28;20757;-48
2021/08/12 08:55:03;;;;;;;8.47;6.70;;;;;;;;;;5012303;28;20883;-47
2021/08/12 08:57:31;;;;;;;7.83;7.07;;;;;;;;;;5012115;28;20449;-47
2021/08/12 08:59:58;;;;;;;7.37;5.93;;;;;;;;;;5012103;28;20405;-48
2021/08/12 09:02:24;;;;;;;7.67;5.90;;;;;;;;;;5012274;28;21020;-47
2021/08/12 09:04:50;;;;;;;6.50;5.90;;;;;;;;;;5012027;28;21091;-48
2021/08/12 09:07:17;;;;;;;6.03;5.37;;;;;;;;;;5011972;28;20506;-47
2021/08/12 09:09:43;;;;;;;6.33;5.80;;;;;;;;;;5011911;28;20801;-48
2021/08/12 09:12:09;;;;;;;6.70;6.10;;;;;;;;;;5010864;28;20445;-48
2021/08/12 09:14:39;;;;;;;6.20;5.60;;;;;;;;;;5012075;28;20747;-49
2021/08/12 09:17:21;;;;;;;5.73;4.87;;;;;;;;;;5012104;28;20414;-49
2021/08/12 09:20:02;;;;;;;7.40;6.70;;;;;;;;;;5012022;28;20486;-47
2021/08/12 09:22:46;;;;;;;5.60;5.10;;;;;;;;;;5011995;28;20979;-47
2021/08/12 09:25:12;;;;;;;6.70;5.80;;;;;;;;;;5011806;28;20945;-47
2021/08/12 09:27:38;;;;;;;7.10;6.30;;;;;;;;;;5011669;28;20419;-47
2021/08/12 09:30:11;;;;;;;6.13;5.53;;;;;;;;;;5011485;28;20399;-49
2021/08/12 09:32:44;;;;;;;6.63;5.67;;;;;;;;;;5011743;28;20404;-47
2021/08/12 09:35:10;;;;;;;6.73;6.10;;;;;;;;;;5011867;28;20410;-49
2021/08/12 09:37:36;;;;;;;5.97;5.37;;;;;;;;;;5011409;28;20443;-48
2021/08/12 09:40:03;;;;;;;6.67;6.13;;;;;;;;;;5011387;28;20410;-48
2021/08/12 09:42:29;;;;;;;5.53;5.10;;;;;;;;;;5011486;28;20640;-47
2021/08/12 09:44:55;;;;;;;5.50;5.03;;;;;;;;;;5011345;28;20399;-47
2021/08/12 09:47:21;;;;;;;7.57;6.77;;;;;;;;;;5011256;28;20458;-46
2021/08/12 09:49:51;;;;;;;6.20;5.70;;;;;;;;;;5011226;28;20176;-47
2021/08/12 09:52:18;;;;;;;8.30;7.20;;;;;;;;;;5010691;28;20679;-47
2021/08/12 09:54:44;;;;;;;6.40;5.77;;;;;;;;;;5010950;28;20426;-48
2021/08/12 09:57:17;;;;;;;7.60;6.27;;;;;;;;;;5011025;28;20934;-49
2021/08/12 09:59:47;;;;;;;7.53;6.40;;;;;;;;;;5010976;28;20962;-48
2021/08/12 10:02:13;;;;;;;11.70;6.83;;;;;;;;;;5011270;28;20445;-48
2021/08/12 10:04:39;;;;;;;6.50;5.83;;;;;;;;;;5012060;28;20430;-48
2021/08/12 10:07:05;;;;;;;6.40;5.73;;;;;;;;;;5004536;28;20392;-47
2021/08/12 10:09:40;;;;;;;14.90;7.13;;;;;;;;;;5006337;28;20408;-46
2021/08/12 10:12:06;;;;;;;6.43;5.80;;;;;;;;;;5003660;28;20403;-49
2021/08/12 10:14:32;;;;;;;5.57;5.07;;;;;;;;;;5003946;28;20408;-47
2021/08/12 10:16:58;;;;;;;9.30;5.87;;;;;;;;;;4998110;28;20466;-47
2021/08/12 10:19:24;;;;;;;9.03;5.53;;;;;;;;;;5002181;28;20464;-49
2021/08/12 10:21:50;;;;;;;5.70;5.20;;;;;;;;;;5000390;28;20454;-47
2021/08/12 10:24:18;;;;;;;7.10;6.40;;;;;;;;;;5000107;28;20431;-47
2021/08/12 10:26:46;;;;;;;5.70;5.20;;;;;;;;;;5000066;28;20463;-47
2021/08/12 10:29:14;;;;;;;9.43;5.80;;;;;;;;;;5007187;28;20860;-47
2021/08/12 10:31:44;;;;;;;4.60;4.20;;;;;;;;;;5018284;28;20414;-47
2021/08/12 10:34:11;;;;;;;5.27;4.77;;;;;;;;;;5010696;28;20899;-47
2021/08/12 10:36:37;;;;;;;14.43;5.50;;;;;;;;;;5011865;28;20426;-47
2021/08/12 10:39:05;;;;;;;5.10;4.60;;;;;;;;;;4991575;28;20474;-48
2021/08/12 10:41:31;;;;;;;7.23;6.30;;;;;;;;;;5030423;28;20406;-48
2021/08/12 10:43:59;;;;;;;5.50;5.10;;;;;;;;;;5030328;28;20399;-48
2021/08/12 10:46:32;;;;;;;6.83;5.57;;;;;;;;;;5030540;28;20398;-48
2021/08/12 10:49:17;;;;;;;8.93;6.23;;;;;;;;;;5029870;28;20433;-49
2021/08/12 10:51:46;;;;;;;5.27;4.77;;;;;;;;;;5029750;28;20448;-48
2021/08/12 10:54:17;;;;;;;5.47;4.90;;;;;;;;;;5030494;28;20402;-46
2021/08/12 10:56:43;;;;;;;4.27;3.80;;;;;;;;;;5030683;28;20460;-48
2021/08/12 10:59:09;;;;;;;8.73;5.20;;;;;;;;;;5021225;28;20462;-48
2021/08/12 11:01:41;;;;;;;6.13;5.53;;;;;;;;;;5010616;28;20435;-48
2021/08/12 11:04:07;;;;;;;8.17;5.57;;;;;;;;;;5011834;28;20403;-47
2021/08/12 11:06:43;;;;;;;5.80;5.40;;;;;;;;;;5014234;28;20446;-50
2021/08/12 11:09:10;;;;;;;12.10;6.20;;;;;;;;;;5014270;28;20433;-47
2021/08/12 11:11:36;;;;;;;9.07;5.50;;;;;;;;;;5013894;28;20490;-47
2021/08/12 11:14:02;;;;;;;4.70;4.30;;;;;;;;;;5013805;28;20495;-48
2021/08/12 11:16:49;;;;;;;4.80;4.40;;;;;;;;;;5012938;28;20168;-48
2021/08/12 11:19:21;;;;;;;4.80;4.30;;;;;;;;;;5013140;28;20631;-48
2021/08/12 11:21:48;;;;;;;5.97;4.47;;;;;;;;;;5013383;28;20409;-47
2021/08/12 11:24:23;;;;;;;5.93;4.47;;;;;;;;;;5012473;28;20403;-47
2021/08/12 11:26:49;;;;;;;4.97;4.20;;;;;;;;;;5012650;28;20402;-48
2021/08/12 11:29:36;;;;;;;3.67;2.83;;;;;;;;;;5012943;28;20419;-50
2021/08/12 11:32:02;;;;;;;3.77;3.47;;;;;;;;;;5012900;28;20180;-48
2021/08/12 11:34:35;;;;;;;6.37;4.03;;;;;;;;;;5012847;28;20443;-48
2021/08/12 11:37:16;;;;;;;4.80;3.70;;;;;;;;;;5012804;28;20438;-48
2021/08/12 11:39:57;;;;;;;4.73;4.20;;;;;;;;;;5013678;28;20462;-48
2021/08/12 11:42:25;;;;;;;4.90;4.50;;;;;;;;;;5013657;28;20437;-48
2021/08/12 11:44:52;;;;;;;4.10;3.80;;;;;;;;;;5013672;28;20458;-48
2021/08/12 11:47:19;;;;;;;4.90;4.40;;;;;;;;;;5013440;28;20435;-48
2021/08/12 11:49:49;;;;;;;4.83;3.80;;;;;;;;;;5013391;28;20410;-47
2021/08/12 11:52:28;;;;;;;4.80;4.40;;;;;;;;;;5013475;28;20498;-47
2021/08/12 11:55:01;;;;;;;6.73;4.47;;;;;;;;;;5012422;28;20411;-48
2021/08/12 11:57:46;;;;;;;5.43;4.20;;;;;;;;;;5013243;28;20594;-47
2021/08/12 12:00:22;;;;;;;5.10;3.50;;;;;;;;;;5013276;28;20411;-46
2021/08/12 12:02:49;;;;;;;6.37;4.37;;;;;;;;;;5013200;28;20391;-47
2021/08/12 12:05:15;;;;;;;5.93;4.23;;;;;;;;;;5013168;28;20430;-48
2021/08/12 12:07:42;;;;;;;6.70;4.40;;;;;;;;;;5012116;28;20430;-47
2021/08/12 12:10:08;;;;;;;4.90;4.40;;;;;;;;;;5012759;28;20449;-47
2021/08/12 12:12:34;;;;;;;6.57;4.80;;;;;;;;;;5012971;28;20914;-46
2021/08/12 12:15:00;;;;;;;4.50;4.10;;;;;;;;;;5012926;28;20512;-47
2021/08/12 12:17:26;;;;;;;5.80;4.30;;;;;;;;;;5012387;28;20415;-47
2021/08/12 12:20:04;;;;;;;7.13;4.60;;;;;;;;;;5012549;28;20455;-46
2021/08/12 12:22:31;;;;;;;4.60;4.13;;;;;;;;;;5012870;28;20945;-46
2021/08/12 12:24:58;;;;;;;7.43;4.17;;;;;;;;;;5012606;28;20899;-47
2021/08/12 12:27:25;;;;;;;4.40;4.10;;;;;;;;;;5012844;28;20470;-46
2021/08/12 12:29:51;;;;;;;4.67;4.20;;;;;;;;;;5012600;28;20903;-47
2021/08/12 12:32:19;;;;;;;8.70;7.17;;;;;;;;;;5012787;28;20439;-47
2021/08/12 12:34:48;;;;;;;4.07;3.77;;;;;;;;;;5012920;28;20819;-47
2021/08/12 12:37:14;;;;;;;6.67;3.73;;;;;;;;;;5012425;28;20438;-46
2021/08/12 12:39:41;;;;;;;4.43;3.97;;;;;;;;;;5012268;28;20450;-47
2021/08/12 12:42:07;;;;;;;6.00;4.60;;;;;;;;;;5012489;28;20406;-46
2021/08/12 12:44:33;;;;;;;5.67;5.17;;;;;;;;;;5012713;28;20395;-47
2021/08/12 12:46:59;;;;;;;5.30;4.70;;;;;;;;;;5011942;28;20414;-47
2021/08/12 12:49:30;;;;;;;5.80;5.17;;;;;;;;;;5012407;28;20911;-46
2021/08/12 12:52:06;;;;;;;4.90;4.50;;;;;;;;;;5012502;28;20880;-46
2021/08/12 12:54:33;;;;;;;11.10;6.93;;;;;;;;;;5012069;28;20410;-47
2021/08/12 12:56:59;;;;;;;6.47;4.57;;;;;;;;;;5011853;28;20461;-46
2021/08/12 12:59:25;;;;;;;5.57;4.87;;;;;;;;;;5011029;28;20807;-47
2021/08/12 13:01:58;;;;;;;4.50;4.00;;;;;;;;;;5012532;28;20411;-47
2021/08/12 13:04:24;;;;;;;5.03;4.63;;;;;;;;;;5012073;28;20510;-46
2021/08/12 13:06:51;;;;;;;5.80;5.17;;;;;;;;;;5011565;28;20823;-46
2021/08/12 13:09:32;;;;;;;4.50;4.10;;;;;;;;;;5010695;28;20895;-48
2021/08/12 13:11:59;;;;;;;3.97;3.57;;;;;;;;;;5012089;28;20399;-47
2021/08/12 13:14:34;;;;;;;4.00;3.70;;;;;;;;;;5011930;28;20486;-46
2021/08/12 13:17:00;;;;;;;4.20;3.90;;;;;;;;;;5011798;28;20416;-46
2021/08/12 13:19:27;;;;;;;4.00;3.70;;;;;;;;;;5012057;28;20462;-46
2021/08/12 13:22:01;;;;;;;4.93;4.37;;;;;;;;;;5011962;28;20765;-48
2021/08/12 13:24:37;;;;;;;4.20;3.80;;;;;;;;;;5011822;28;20446;-47
2021/08/12 13:27:03;;;;;;;6.03;4.67;;;;;;;;;;5011346;28;20801;-46
2021/08/12 13:29:30;;;;;;;7.47;5.00;;;;;;;;;;5011184;28;20407;-48
2021/08/12 13:32:08;;;;;;;6.37;4.70;;;;;;;;;;5011651;28;20427;-46
2021/08/12 13:34:35;;;;;;;5.20;4.20;;;;;;;;;;5011615;28;20411;-45
2021/08/12 13:37:01;;;;;;;6.63;4.80;;;;;;;;;;5011448;28;20546;-46
2021/08/12 13:39:27;;;;;;;5.80;5.20;;;;;;;;;;5011587;28;20953;-45
2021/08/12 13:41:55;;;;;;;9.53;5.00;;;;;;;;;;5011327;28;20399;-47
2021/08/12 13:44:25;;;;;;;12.07;5.30;;;;;;;;;;5010121;28;20946;-46
2021/08/12 13:46:51;;;;;;;10.90;4.90;;;;;;;;;;4994002;28;20442;-45
2021/08/12 13:49:17;;;;;;;5.80;5.20;;;;;;;;;;5011190;28;20419;-45
2021/08/12 13:51:43;;;;;;;5.63;4.80;;;;;;;;;;5010175;28;20477;-46
2021/08/12 13:54:09;;;;;;;8.83;4.53;;;;;;;;;;5010433;28;20895;-46
2021/08/12 13:56:35;;;;;;;8.13;5.80;;;;;;;;;;5010929;28;20415;-46
2021/08/12 13:59:01;;;;;;;4.87;4.40;;;;;;;;;;5010623;28;20970;-46
2021/08/12 14:01:31;;;;;;;5.30;4.80;;;;;;;;;;5009595;28;20755;-47
2021/08/12 14:03:57;;;;;;;5.63;4.73;;;;;;;;;;5010217;28;20760;-45
2021/08/12 14:06:23;;;;;;;5.17;4.67;;;;;;;;;;5011029;28;20561;-46
2021/08/12 14:08:49;;;;;;;6.00;4.23;;;;;;;;;;5010902;28;20986;-46
2021/08/12 14:11:15;;;;;;;5.23;4.60;;;;;;;;;;5010750;28;20414;-46
2021/08/12 14:13:41;;;;;;;8.27;3.90;;;;;;;;;;5011142;28;20435;-46
2021/08/12 14:16:07;;;;;;;8.00;4.50;;;;;;;;;;5011146;28;20411;-46
2021/08/12 14:18:33;;;;;;;5.13;4.33;;;;;;;;;;5010871;28;20531;-46
2021/08/12 14:21:00;;;;;;;9.53;4.47;;;;;;;;;;5011138;28;20407;-46
2021/08/12 14:23:27;;;;;;;5.13;3.93;;;;;;;;;;5010912;28;20407;-46
2021/08/12 14:25:53;;;;;;;4.90;3.77;;;;;;;;;;5010901;28;20441;-46
2021/08/12 14:28:18;;;;;;;4.70;4.30;;;;;;;;;;5010745;28;20463;-46
2021/08/12 14:30:46;;;;;;;4.40;4.00;;;;;;;;;;5010367;28;20403;-47
2021/08/12 14:33:12;;;;;;;6.30;4.67;;;;;;;;;;5010262;28;20527;-45